sensor_id;sensor_type;location;lat;lon;timestamp;P1;durP1;ratioP1;P2;durP2;ratioP2
25609;SDS011;13479;49.044;8.716;2022-12-10T05:00:51;27.97;;;15.77;;
25609;SDS011;13479;49.044;8.716;2022-12-10T05:03:17;27.73;;;15.03;;
25609;SDS011;13479;49.044;8.716;2022-12-10T05:05:42;29.07;;;16.03;;
25609;SDS011;13479;49.044;8.716;2022-12-10T05:08:07;30.87;;;15.70;;
25609;SDS011;13479;49.044;8.716;2022-12-10T05:10:34;30.03;;;15.57;;
25609;SDS011;13479;49.044;8.716;2022-12-10T05:12:59;27.43;;;14.47;;
25609;SDS011;13479;49.044;8.716;2022-12-10T05:15:25;28.87;;;15.27;;
25609;SDS011;13479;49.044;8.716;2022-12-10T05:17:50;26.80;;;14.53;;
25609;SDS011;13479;49.044;8.716;2022-12-10T05:20:15;27.67;;;14.60;;
25609;SDS011;13479;49.044;8.716;2022-12-10T05:22:40;28.67;;;16.10;;
25609;SDS011;13479;49.044;8.716;2022-12-10T05:25:24;36.13;;;16.43;;
25609;SDS011;13479;49.044;8.716;2022-12-10T05:27:49;32.77;;;15.80;;
25609;SDS011;13479;49.044;8.716;2022-12-10T05:30:15;32.83;;;16.13;;
25609;SDS011;13479;49.044;8.716;2022-12-10T05:32:40;27.43;;;15.17;;
25609;SDS011;13479;49.044;8.716;2022-12-10T05:35:05;29.23;;;15.97;;
25609;SDS011;13479;49.044;8.716;2022-12-10T05:37:31;30.13;;;16.03;;
25609;SDS011;13479;49.044;8.716;2022-12-10T05:39:56;29.23;;;15.57;;
25609;SDS011;13479;49.044;8.716;2022-12-10T05:42:21;27.50;;;14.87;;
25609;SDS011;13479;49.044;8.716;2022-12-10T05:44:47;29.17;;;14.93;;
25609;SDS011;13479;49.044;8.716;2022-12-10T05:47:12;29.60;;;15.00;;
25609;SDS011;13479;49.044;8.716;2022-12-10T05:49:37;27.37;;;14.13;;
25609;SDS011;13479;49.044;8.716;2022-12-10T05:52:02;26.80;;;14.70;;
25609;SDS011;13479;49.044;8.716;2022-12-10T05:54:28;25.90;;;14.30;;
25609;SDS011;13479;49.044;8.716;2022-12-10T05:56:53;27.67;;;14.77;;
25609;SDS011;13479;49.044;8.716;2022-12-10T05:59:19;27.20;;;14.33;;
25609;SDS011;13479;49.044;8.716;2022-12-10T06:01:45;27.20;;;14.43;;
25609;SDS011;13479;49.044;8.716;2022-12-10T06:04:10;28.00;;;15.30;;
25609;SDS011;13479;49.044;8.716;2022-12-10T06:06:37;27.17;;;15.00;;
25609;SDS011;13479;49.044;8.716;2022-12-10T06:09:04;31.07;;;16.07;;
25609;SDS011;13479;49.044;8.716;2022-12-10T06:11:30;28.40;;;14.37;;
25609;SDS011;13479;49.044;8.716;2022-12-10T06:13:56;28.67;;;14.67;;
25609;SDS011;13479;49.044;8.716;2022-12-10T06:16:24;32.27;;;17.03;;
25609;SDS011;13479;49.044;8.716;2022-12-10T06:18:50;31.87;;;16.60;;
25609;SDS011;13479;49.044;8.716;2022-12-10T06:21:16;34.87;;;17.20;;
25609;SDS011;13479;49.044;8.716;2022-12-10T06:23:43;30.50;;;15.47;;
25609;SDS011;13479;49.044;8.716;2022-12-10T06:26:16;31.87;;;16.23;;
25609;SDS011;13479;49.044;8.716;2022-12-10T06:28:44;34.80;;;16.70;;
25609;SDS011;13479;49.044;8.716;2022-12-10T06:31:10;35.03;;;15.93;;
25609;SDS011;13479;49.044;8.716;2022-12-10T06:33:36;33.43;;;16.67;;
25609;SDS011;13479;49.044;8.716;2022-12-10T06:36:05;30.93;;;15.63;;
25609;SDS011;13479;49.044;8.716;2022-12-10T06:38:33;30.80;;;15.53;;
25609;SDS011;13479;49.044;8.716;2022-12-10T06:40:59;29.67;;;15.73;;
25609;SDS011;13479;49.044;8.716;2022-12-10T06:43:24;35.83;;;18.30;;
25609;SDS011;13479;49.044;8.716;2022-12-10T06:45:49;34.60;;;17.30;;
25609;SDS011;13479;49.044;8.716;2022-12-10T06:48:14;32.63;;;16.90;;
25609;SDS011;13479;49.044;8.716;2022-12-10T06:50:40;28.27;;;14.23;;
25609;SDS011;13479;49.044;8.716;2022-12-10T06:53:06;32.37;;;16.47;;
25609;SDS011;13479;49.044;8.716;2022-12-10T06:55:31;30.33;;;14.67;;
25609;SDS011;13479;49.044;8.716;2022-12-10T06:57:56;31.30;;;16.00;;
25609;SDS011;13479;49.044;8.716;2022-12-10T07:00:22;31.57;;;15.80;;
25609;SDS011;13479;49.044;8.716;2022-12-10T07:02:47;30.53;;;16.33;;
25609;SDS011;13479;49.044;8.716;2022-12-10T07:05:14;31.83;;;16.73;;
25609;SDS011;13479;49.044;8.716;2022-12-10T07:07:40;34.70;;;17.87;;
25609;SDS011;13479;49.044;8.716;2022-12-10T07:10:05;34.83;;;17.13;;
25609;SDS011;13479;49.044;8.716;2022-12-10T07:12:31;32.30;;;16.07;;
25609;SDS011;13479;49.044;8.716;2022-12-10T07:14:56;31.77;;;17.13;;
25609;SDS011;13479;49.044;8.716;2022-12-10T07:17:22;28.83;;;15.90;;
25609;SDS011;13479;49.044;8.716;2022-12-10T07:19:47;31.40;;;16.13;;
25609;SDS011;13479;49.044;8.716;2022-12-10T07:22:12;33.63;;;16.90;;
25609;SDS011;13479;49.044;8.716;2022-12-10T07:24:38;31.43;;;16.07;;
25609;SDS011;13479;49.044;8.716;2022-12-10T07:27:06;33.37;;;16.13;;
25609;SDS011;13479;49.044;8.716;2022-12-10T07:29:32;34.43;;;16.57;;
25609;SDS011;13479;49.044;8.716;2022-12-10T07:31:58;34.57;;;17.33;;
25609;SDS011;13479;49.044;8.716;2022-12-10T07:34:23;27.87;;;15.27;;
25609;SDS011;13479;49.044;8.716;2022-12-10T07:36:48;32.07;;;16.37;;
25609;SDS011;13479;49.044;8.716;2022-12-10T07:39:14;29.67;;;15.20;;
25609;SDS011;13479;49.044;8.716;2022-12-10T07:41:42;34.23;;;17.23;;
25609;SDS011;13479;49.044;8.716;2022-12-10T07:44:18;27.57;;;15.00;;
25609;SDS011;13479;49.044;8.716;2022-12-10T07:46:46;30.67;;;15.87;;
25609;SDS011;13479;49.044;8.716;2022-12-10T07:49:12;31.20;;;16.10;;
25609;SDS011;13479;49.044;8.716;2022-12-10T07:51:37;31.20;;;16.53;;
25609;SDS011;13479;49.044;8.716;2022-12-10T07:54:02;37.27;;;16.80;;
25609;SDS011;13479;49.044;8.716;2022-12-10T07:56:28;30.23;;;16.73;;
25609;SDS011;13479;49.044;8.716;2022-12-10T07:58:53;41.53;;;20.00;;
25609;SDS011;13479;49.044;8.716;2022-12-10T08:01:23;31.37;;;15.67;;
25609;SDS011;13479;49.044;8.716;2022-12-10T08:03:50;31.23;;;15.57;;
25609;SDS011;13479;49.044;8.716;2022-12-10T08:06:18;29.83;;;16.20;;
25609;SDS011;13479;49.044;8.716;2022-12-10T08:08:45;30.10;;;16.83;;
25609;SDS011;13479;49.044;8.716;2022-12-10T08:11:11;35.53;;;18.60;;
25609;SDS011;13479;49.044;8.716;2022-12-10T08:13:38;33.53;;;17.63;;
25609;SDS011;13479;49.044;8.716;2022-12-10T08:16:07;38.27;;;18.63;;
25609;SDS011;13479;49.044;8.716;2022-12-10T08:18:36;34.07;;;17.80;;
25609;SDS011;13479;49.044;8.716;2022-12-10T08:21:08;32.53;;;17.43;;
25609;SDS011;13479;49.044;8.716;2022-12-10T08:23:36;32.67;;;17.10;;
25609;SDS011;13479;49.044;8.716;2022-12-10T08:26:03;31.33;;;16.90;;
25609;SDS011;13479;49.044;8.716;2022-12-10T08:28:29;31.80;;;16.40;;
25609;SDS011;13479;49.044;8.716;2022-12-10T08:30:54;32.33;;;17.57;;
25609;SDS011;13479;49.044;8.716;2022-12-10T08:33:19;30.93;;;16.37;;
25609;SDS011;13479;49.044;8.716;2022-12-10T08:35:45;32.47;;;17.67;;
25609;SDS011;13479;49.044;8.716;2022-12-10T08:38:10;32.43;;;16.50;;
25609;SDS011;13479;49.044;8.716;2022-12-10T08:40:38;26.87;;;14.80;;
25609;SDS011;13479;49.044;8.716;2022-12-10T08:43:05;29.97;;;16.80;;
25609;SDS011;13479;49.044;8.716;2022-12-10T08:45:30;32.50;;;16.77;;
25609;SDS011;13479;49.044;8.716;2022-12-10T08:47:56;31.03;;;16.67;;
25609;SDS011;13479;49.044;8.716;2022-12-10T08:50:21;32.27;;;16.97;;
25609;SDS011;13479;49.044;8.716;2022-12-10T08:52:46;34.57;;;17.97;;
25609;SDS011;13479;49.044;8.716;2022-12-10T08:55:11;30.23;;;16.33;;
25609;SDS011;13479;49.044;8.716;2022-12-10T08:57:37;29.07;;;15.20;;
25609;SDS011;13479;49.044;8.716;2022-12-10T09:00:02;27.43;;;15.33;;
25609;SDS011;13479;49.044;8.716;2022-12-10T09:02:28;30.63;;;17.53;;
25609;SDS011;13479;49.044;8.716;2022-12-10T09:04:54;32.60;;;17.97;;
25609;SDS011;13479;49.044;8.716;2022-12-10T09:07:19;31.47;;;15.97;;
25609;SDS011;13479;49.044;8.716;2022-12-10T09:09:44;31.27;;;16.77;;
25609;SDS011;13479;49.044;8.716;2022-12-10T09:12:09;28.00;;;15.97;;
25609;SDS011;13479;49.044;8.716;2022-12-10T09:14:35;31.63;;;17.53;;
25609;SDS011;13479;49.044;8.716;2022-12-10T09:17:02;33.53;;;17.13;;
25609;SDS011;13479;49.044;8.716;2022-12-10T09:19:28;35.00;;;18.60;;
25609;SDS011;13479;49.044;8.716;2022-12-10T09:21:53;34.63;;;17.60;;
25609;SDS011;13479;49.044;8.716;2022-12-10T09:24:19;34.60;;;17.30;;
25609;SDS011;13479;49.044;8.716;2022-12-10T09:26:44;33.57;;;17.10;;
25609;SDS011;13479;49.044;8.716;2022-12-10T09:29:09;37.50;;;18.53;;
25609;SDS011;13479;49.044;8.716;2022-12-10T09:31:34;32.23;;;15.37;;
25609;SDS011;13479;49.044;8.716;2022-12-10T09:34:00;33.87;;;18.23;;
25609;SDS011;13479;49.044;8.716;2022-12-10T09:36:25;37.23;;;17.53;;
25609;SDS011;13479;49.044;8.716;2022-12-10T09:38:50;35.93;;;17.60;;
25609;SDS011;13479;49.044;8.716;2022-12-10T09:41:21;29.03;;;15.87;;
25609;SDS011;13479;49.044;8.716;2022-12-10T09:46:51;33.83;;;17.87;;
25609;SDS011;13479;49.044;8.716;2022-12-10T09:52:06;34.00;;;16.30;;
25609;SDS011;13479;49.044;8.716;2022-12-10T09:54:38;32.17;;;16.10;;
25609;SDS011;13479;49.044;8.716;2022-12-10T09:57:05;30.73;;;16.20;;
25609;SDS011;13479;49.044;8.716;2022-12-10T10:02:18;32.70;;;17.70;;
25609;SDS011;13479;49.044;8.716;2022-12-10T10:04:44;30.97;;;16.63;;
25609;SDS011;13479;49.044;8.716;2022-12-10T10:07:17;30.77;;;16.97;;
25609;SDS011;13479;49.044;8.716;2022-12-10T10:09:46;32.00;;;15.60;;
25609;SDS011;13479;49.044;8.716;2022-12-10T10:12:12;29.00;;;15.67;;
25609;SDS011;13479;49.044;8.716;2022-12-10T10:14:42;35.00;;;16.77;;
25609;SDS011;13479;49.044;8.716;2022-12-10T10:17:09;28.37;;;15.77;;
25609;SDS011;13479;49.044;8.716;2022-12-10T10:19:41;29.93;;;15.43;;
25609;SDS011;13479;49.044;8.716;2022-12-10T10:22:09;29.03;;;15.77;;
25609;SDS011;13479;49.044;8.716;2022-12-10T10:24:40;32.50;;;16.90;;
25609;SDS011;13479;49.044;8.716;2022-12-10T10:27:17;30.83;;;15.50;;
25609;SDS011;13479;49.044;8.716;2022-12-10T10:29:46;30.73;;;16.70;;
25609;SDS011;13479;49.044;8.716;2022-12-10T10:34:42;29.63;;;15.60;;
25609;SDS011;13479;49.044;8.716;2022-12-10T10:37:13;33.30;;;16.60;;
25609;SDS011;13479;49.044;8.716;2022-12-10T10:39:41;29.43;;;15.83;;
25609;SDS011;13479;49.044;8.716;2022-12-10T10:42:21;29.63;;;14.60;;
25609;SDS011;13479;49.044;8.716;2022-12-10T10:44:48;32.97;;;16.03;;
25609;SDS011;13479;49.044;8.716;2022-12-10T10:47:24;28.47;;;15.17;;
25609;SDS011;13479;49.044;8.716;2022-12-10T10:49:51;28.77;;;15.70;;
25609;SDS011;13479;49.044;8.716;2022-12-10T10:52:18;32.77;;;15.77;;
25609;SDS011;13479;49.044;8.716;2022-12-10T10:54:44;30.17;;;16.10;;
25609;SDS011;13479;49.044;8.716;2022-12-10T10:57:15;32.57;;;15.00;;
25609;SDS011;13479;49.044;8.716;2022-12-10T10:59:46;29.57;;;15.57;;
25609;SDS011;13479;49.044;8.716;2022-12-10T11:02:20;30.30;;;16.53;;
25609;SDS011;13479;49.044;8.716;2022-12-10T11:04:51;28.77;;;15.13;;
25609;SDS011;13479;49.044;8.716;2022-12-10T11:07:39;29.63;;;16.43;;
25609;SDS011;13479;49.044;8.716;2022-12-10T11:12:42;26.10;;;14.47;;
25609;SDS011;13479;49.044;8.716;2022-12-10T11:17:51;28.27;;;15.13;;
25609;SDS011;13479;49.044;8.716;2022-12-10T11:20:31;28.07;;;15.27;;
25609;SDS011;13479;49.044;8.716;2022-12-10T11:23:05;29.73;;;15.50;;
25609;SDS011;13479;49.044;8.716;2022-12-10T11:28:29;29.33;;;15.43;;
25609;SDS011;13479;49.044;8.716;2022-12-10T11:33:52;27.63;;;14.50;;
25609;SDS011;13479;49.044;8.716;2022-12-10T11:36:28;28.63;;;14.63;;
25609;SDS011;13479;49.044;8.716;2022-12-10T11:39:40;25.60;;;14.37;;
25609;SDS011;13479;49.044;8.716;2022-12-10T11:42:20;25.90;;;15.17;;
25609;SDS011;13479;49.044;8.716;2022-12-10T11:45:00;26.27;;;13.53;;
25609;SDS011;13479;49.044;8.716;2022-12-10T11:55:48;29.43;;;15.33;;
25609;SDS011;13479;49.044;8.716;2022-12-10T11:58:37;26.50;;;14.27;;
25609;SDS011;13479;49.044;8.716;2022-12-10T12:04:26;22.93;;;12.90;;
25609;SDS011;13479;49.044;8.716;2022-12-10T12:07:02;23.67;;;13.60;;
25609;SDS011;13479;49.044;8.716;2022-12-10T12:09:50;25.60;;;14.43;;
25609;SDS011;13479;49.044;8.716;2022-12-10T12:12:36;24.40;;;13.30;;
25609;SDS011;13479;49.044;8.716;2022-12-10T12:15:20;27.70;;;13.73;;
25609;SDS011;13479;49.044;8.716;2022-12-10T12:17:55;24.97;;;13.83;;
25609;SDS011;13479;49.044;8.716;2022-12-10T12:20:28;24.87;;;13.87;;
25609;SDS011;13479;49.044;8.716;2022-12-10T12:22:59;24.63;;;13.37;;
25609;SDS011;13479;49.044;8.716;2022-12-10T12:25:45;26.93;;;13.73;;
25609;SDS011;13479;49.044;8.716;2022-12-10T12:28:23;28.67;;;14.47;;
25609;SDS011;13479;49.044;8.716;2022-12-10T12:31:14;24.90;;;13.57;;
25609;SDS011;13479;49.044;8.716;2022-12-10T12:33:53;24.33;;;13.67;;
25609;SDS011;13479;49.044;8.716;2022-12-10T12:36:25;22.13;;;12.77;;
25609;SDS011;13479;49.044;8.716;2022-12-10T12:38:56;23.70;;;13.20;;
25609;SDS011;13479;49.044;8.716;2022-12-10T12:44:07;28.23;;;13.47;;
25609;SDS011;13479;49.044;8.716;2022-12-10T12:46:39;26.20;;;14.03;;
25609;SDS011;13479;49.044;8.716;2022-12-10T12:51:39;25.73;;;13.80;;
25609;SDS011;13479;49.044;8.716;2022-12-10T12:54:10;26.07;;;13.43;;
25609;SDS011;13479;49.044;8.716;2022-12-10T12:56:57;22.83;;;12.67;;
25609;SDS011;13479;49.044;8.716;2022-12-10T12:59:47;24.63;;;13.07;;
25609;SDS011;13479;49.044;8.716;2022-12-10T13:02:22;23.63;;;12.97;;
25609;SDS011;13479;49.044;8.716;2022-12-10T13:05:02;23.47;;;12.20;;
25609;SDS011;13479;49.044;8.716;2022-12-10T13:07:33;20.90;;;11.87;;
25609;SDS011;13479;49.044;8.716;2022-12-10T13:12:31;23.20;;;12.50;;
25609;SDS011;13479;49.044;8.716;2022-12-10T13:15:37;23.60;;;12.23;;
25609;SDS011;13479;49.044;8.716;2022-12-10T13:18:05;24.47;;;12.83;;
25609;SDS011;13479;49.044;8.716;2022-12-10T13:26:25;25.73;;;12.70;;
25609;SDS011;13479;49.044;8.716;2022-12-10T13:28:53;20.13;;;11.23;;
25609;SDS011;13479;49.044;8.716;2022-12-10T13:36:25;20.17;;;11.50;;
25609;SDS011;13479;49.044;8.716;2022-12-10T13:41:28;21.20;;;10.97;;
25609;SDS011;13479;49.044;8.716;2022-12-10T13:44:35;21.27;;;11.07;;
25609;SDS011;13479;49.044;8.716;2022-12-10T13:49:47;22.00;;;12.00;;
25609;SDS011;13479;49.044;8.716;2022-12-10T13:52:19;23.63;;;11.90;;
25609;SDS011;13479;49.044;8.716;2022-12-10T13:57:38;22.33;;;12.53;;
25609;SDS011;13479;49.044;8.716;2022-12-10T14:00:13;22.23;;;12.70;;
25609;SDS011;13479;49.044;8.716;2022-12-10T14:02:45;21.80;;;12.43;;
25609;SDS011;13479;49.044;8.716;2022-12-10T14:08:08;22.23;;;12.43;;
25609;SDS011;13479;49.044;8.716;2022-12-10T14:10:41;21.50;;;12.43;;
25609;SDS011;13479;49.044;8.716;2022-12-10T14:13:10;22.27;;;12.80;;
25609;SDS011;13479;49.044;8.716;2022-12-10T14:15:40;20.70;;;11.50;;
25609;SDS011;13479;49.044;8.716;2022-12-10T14:18:12;19.27;;;10.80;;
25609;SDS011;13479;49.044;8.716;2022-12-10T14:20:41;19.23;;;10.37;;
25609;SDS011;13479;49.044;8.716;2022-12-10T14:26:11;19.23;;;10.30;;
25609;SDS011;13479;49.044;8.716;2022-12-10T14:28:48;19.33;;;10.83;;
25609;SDS011;13479;49.044;8.716;2022-12-10T14:31:20;17.87;;;10.27;;
25609;SDS011;13479;49.044;8.716;2022-12-10T14:33:50;21.83;;;10.80;;
25609;SDS011;13479;49.044;8.716;2022-12-10T14:36:31;17.60;;;10.23;;
25609;SDS011;13479;49.044;8.716;2022-12-10T14:38:59;21.33;;;10.90;;
25609;SDS011;13479;49.044;8.716;2022-12-10T14:41:25;20.33;;;10.00;;
25609;SDS011;13479;49.044;8.716;2022-12-10T14:43:53;19.17;;;10.50;;
25609;SDS011;13479;49.044;8.716;2022-12-10T14:46:20;17.47;;;9.80;;
25609;SDS011;13479;49.044;8.716;2022-12-10T14:48:49;19.07;;;9.20;;
25609;SDS011;13479;49.044;8.716;2022-12-10T14:51:18;18.90;;;10.20;;
25609;SDS011;13479;49.044;8.716;2022-12-10T14:53:45;17.73;;;9.87;;
25609;SDS011;13479;49.044;8.716;2022-12-10T14:56:14;17.47;;;9.80;;
25609;SDS011;13479;49.044;8.716;2022-12-10T15:01:32;17.50;;;10.13;;
25609;SDS011;13479;49.044;8.716;2022-12-10T15:04:01;18.70;;;11.00;;
25609;SDS011;13479;49.044;8.716;2022-12-10T15:06:32;17.93;;;9.93;;
25609;SDS011;13479;49.044;8.716;2022-12-10T15:08:59;16.93;;;9.83;;
25609;SDS011;13479;49.044;8.716;2022-12-10T15:11:24;18.50;;;11.13;;
25609;SDS011;13479;49.044;8.716;2022-12-10T15:13:53;18.67;;;9.77;;
25609;SDS011;13479;49.044;8.716;2022-12-10T15:16:39;22.40;;;11.67;;
25609;SDS011;13479;49.044;8.716;2022-12-10T15:19:15;19.73;;;11.33;;
25609;SDS011;13479;49.044;8.716;2022-12-10T15:21:44;19.20;;;10.23;;
25609;SDS011;13479;49.044;8.716;2022-12-10T15:24:15;17.87;;;11.03;;
25609;SDS011;13479;49.044;8.716;2022-12-10T15:26:45;18.97;;;10.90;;
25609;SDS011;13479;49.044;8.716;2022-12-10T15:31:46;22.30;;;12.10;;
25609;SDS011;13479;49.044;8.716;2022-12-10T15:34:12;18.23;;;10.57;;
25609;SDS011;13479;49.044;8.716;2022-12-10T15:36:42;20.50;;;10.90;;
25609;SDS011;13479;49.044;8.716;2022-12-10T15:44:31;17.90;;;10.33;;
25609;SDS011;13479;49.044;8.716;2022-12-10T15:49:43;18.40;;;10.37;;
25609;SDS011;13479;49.044;8.716;2022-12-10T15:52:12;18.10;;;10.83;;
25609;SDS011;13479;49.044;8.716;2022-12-10T15:54:39;20.63;;;10.83;;
25609;SDS011;13479;49.044;8.716;2022-12-10T15:57:12;20.60;;;11.30;;
25609;SDS011;13479;49.044;8.716;2022-12-10T15:59:49;20.17;;;11.33;;
25609;SDS011;13479;49.044;8.716;2022-12-10T16:07:49;17.60;;;10.07;;
25609;SDS011;13479;49.044;8.716;2022-12-10T16:10:18;20.20;;;11.20;;
25609;SDS011;13479;49.044;8.716;2022-12-10T16:12:48;17.43;;;9.93;;
25609;SDS011;13479;49.044;8.716;2022-12-10T16:15:18;19.77;;;10.97;;
25609;SDS011;13479;49.044;8.716;2022-12-10T16:17:46;19.73;;;11.23;;
25609;SDS011;13479;49.044;8.716;2022-12-10T16:22:48;22.90;;;12.77;;
25609;SDS011;13479;49.044;8.716;2022-12-10T16:25:14;22.83;;;13.67;;
25609;SDS011;13479;49.044;8.716;2022-12-10T16:27:39;19.63;;;11.97;;
25609;SDS011;13479;49.044;8.716;2022-12-10T16:30:14;23.93;;;13.17;;
25609;SDS011;13479;49.044;8.716;2022-12-10T16:32:42;23.10;;;12.93;;
25609;SDS011;13479;49.044;8.716;2022-12-10T16:35:08;22.63;;;12.67;;
25609;SDS011;13479;49.044;8.716;2022-12-10T16:37:33;22.73;;;13.90;;
25609;SDS011;13479;49.044;8.716;2022-12-10T16:39:58;23.27;;;12.23;;
25609;SDS011;13479;49.044;8.716;2022-12-10T16:42:24;23.53;;;13.27;;
25609;SDS011;13479;49.044;8.716;2022-12-10T16:44:50;23.53;;;13.37;;
25609;SDS011;13479;49.044;8.716;2022-12-10T16:47:15;28.50;;;14.30;;
25609;SDS011;13479;49.044;8.716;2022-12-10T16:49:40;23.43;;;13.60;;
25609;SDS011;13479;49.044;8.716;2022-12-10T16:52:05;22.73;;;13.40;;
25609;SDS011;13479;49.044;8.716;2022-12-10T16:54:31;24.37;;;13.90;;
25609;SDS011;13479;49.044;8.716;2022-12-10T16:56:56;23.13;;;13.60;;
25609;SDS011;13479;49.044;8.716;2022-12-10T16:59:22;25.83;;;14.20;;
25609;SDS011;13479;49.044;8.716;2022-12-10T17:01:47;25.23;;;13.90;;
25609;SDS011;13479;49.044;8.716;2022-12-10T17:04:12;27.80;;;15.00;;
25609;SDS011;13479;49.044;8.716;2022-12-10T17:06:37;24.13;;;13.43;;
25609;SDS011;13479;49.044;8.716;2022-12-10T17:09:03;28.00;;;16.00;;
25609;SDS011;13479;49.044;8.716;2022-12-10T17:11:39;26.20;;;14.67;;
25609;SDS011;13479;49.044;8.716;2022-12-10T17:14:31;27.10;;;14.53;;
25609;SDS011;13479;49.044;8.716;2022-12-10T17:16:58;26.37;;;14.83;;
25609;SDS011;13479;49.044;8.716;2022-12-10T17:19:28;24.77;;;14.17;;
25609;SDS011;13479;49.044;8.716;2022-12-10T17:21:58;29.93;;;15.07;;
25609;SDS011;13479;49.044;8.716;2022-12-10T17:24:24;23.30;;;13.23;;
25609;SDS011;13479;49.044;8.716;2022-12-10T17:26:50;25.57;;;13.73;;
25609;SDS011;13479;49.044;8.716;2022-12-10T17:29:21;25.73;;;14.00;;
25609;SDS011;13479;49.044;8.716;2022-12-10T17:31:49;26.20;;;14.17;;
25609;SDS011;13479;49.044;8.716;2022-12-10T17:34:15;27.10;;;15.00;;
25609;SDS011;13479;49.044;8.716;2022-12-10T17:36:41;27.70;;;16.00;;
25609;SDS011;13479;49.044;8.716;2022-12-10T17:39:11;27.43;;;15.20;;
25609;SDS011;13479;49.044;8.716;2022-12-10T17:41:38;28.27;;;15.23;;
25609;SDS011;13479;49.044;8.716;2022-12-10T17:44:03;29.20;;;14.57;;
25609;SDS011;13479;49.044;8.716;2022-12-10T17:46:29;33.77;;;18.13;;
25609;SDS011;13479;49.044;8.716;2022-12-10T17:48:54;30.77;;;16.27;;
25609;SDS011;13479;49.044;8.716;2022-12-10T17:51:19;30.17;;;17.17;;
25609;SDS011;13479;49.044;8.716;2022-12-10T17:53:45;94.90;;;41.83;;
25609;SDS011;13479;49.044;8.716;2022-12-10T17:56:12;52.83;;;26.40;;
25609;SDS011;13479;49.044;8.716;2022-12-10T17:58:40;38.43;;;19.60;;
25609;SDS011;13479;49.044;8.716;2022-12-10T18:01:05;30.67;;;16.63;;
25609;SDS011;13479;49.044;8.716;2022-12-10T18:03:31;30.33;;;16.30;;
25609;SDS011;13479;49.044;8.716;2022-12-10T18:05:56;28.67;;;15.17;;
25609;SDS011;13479;49.044;8.716;2022-12-10T18:08:22;30.17;;;16.03;;
25609;SDS011;13479;49.044;8.716;2022-12-10T18:10:48;28.07;;;16.07;;
25609;SDS011;13479;49.044;8.716;2022-12-10T18:13:14;27.87;;;13.60;;
25609;SDS011;13479;49.044;8.716;2022-12-10T18:15:40;29.67;;;15.43;;
25609;SDS011;13479;49.044;8.716;2022-12-10T18:18:06;27.63;;;14.90;;
25609;SDS011;13479;49.044;8.716;2022-12-10T18:20:33;30.63;;;16.40;;
25609;SDS011;13479;49.044;8.716;2022-12-10T18:23:04;35.73;;;16.20;;
25609;SDS011;13479;49.044;8.716;2022-12-10T18:25:31;28.23;;;14.93;;
25609;SDS011;13479;49.044;8.716;2022-12-10T18:27:58;30.70;;;15.20;;
25609;SDS011;13479;49.044;8.716;2022-12-10T18:30:27;37.07;;;17.23;;
25609;SDS011;13479;49.044;8.716;2022-12-10T18:32:53;34.27;;;16.87;;
25609;SDS011;13479;49.044;8.716;2022-12-10T18:35:19;28.70;;;14.10;;
25609;SDS011;13479;49.044;8.716;2022-12-10T18:37:44;37.37;;;17.17;;
25609;SDS011;13479;49.044;8.716;2022-12-10T18:40:20;35.77;;;16.47;;
25609;SDS011;13479;49.044;8.716;2022-12-10T18:42:45;35.37;;;16.57;;
25609;SDS011;13479;49.044;8.716;2022-12-10T18:45:11;32.83;;;16.43;;
25609;SDS011;13479;49.044;8.716;2022-12-10T18:47:36;43.77;;;16.67;;
25609;SDS011;13479;49.044;8.716;2022-12-10T18:50:02;31.70;;;15.93;;
25609;SDS011;13479;49.044;8.716;2022-12-10T18:52:28;30.30;;;14.33;;
25609;SDS011;13479;49.044;8.716;2022-12-10T18:54:54;31.47;;;15.03;;
25609;SDS011;13479;49.044;8.716;2022-12-10T18:57:19;29.47;;;13.63;;
25609;SDS011;13479;49.044;8.716;2022-12-10T18:59:44;30.40;;;14.93;;
25609;SDS011;13479;49.044;8.716;2022-12-10T19:02:10;29.77;;;14.50;;
25609;SDS011;13479;49.044;8.716;2022-12-10T19:04:35;36.00;;;17.77;;
25609;SDS011;13479;49.044;8.716;2022-12-10T19:07:01;40.17;;;18.43;;
25609;SDS011;13479;49.044;8.716;2022-12-10T19:09:27;34.67;;;17.03;;
25609;SDS011;13479;49.044;8.716;2022-12-10T19:11:52;38.27;;;16.80;;
25609;SDS011;13479;49.044;8.716;2022-12-10T19:14:18;43.83;;;19.70;;
25609;SDS011;13479;49.044;8.716;2022-12-10T19:16:44;45.30;;;20.60;;
25609;SDS011;13479;49.044;8.716;2022-12-10T19:19:11;41.20;;;18.57;;
25609;SDS011;13479;49.044;8.716;2022-12-10T19:21:36;40.73;;;18.60;;
25609;SDS011;13479;49.044;8.716;2022-12-10T19:24:02;40.57;;;18.63;;
25609;SDS011;13479;49.044;8.716;2022-12-10T19:26:29;38.63;;;17.60;;
25609;SDS011;13479;49.044;8.716;2022-12-10T19:28:57;39.83;;;18.97;;
25609;SDS011;13479;49.044;8.716;2022-12-10T19:31:23;39.40;;;18.00;;
25609;SDS011;13479;49.044;8.716;2022-12-10T19:33:48;40.13;;;18.03;;
25609;SDS011;13479;49.044;8.716;2022-12-10T19:36:18;41.57;;;19.53;;
25609;SDS011;13479;49.044;8.716;2022-12-10T19:38:46;40.47;;;19.20;;
25609;SDS011;13479;49.044;8.716;2022-12-10T19:41:12;42.10;;;20.20;;
25609;SDS011;13479;49.044;8.716;2022-12-10T19:43:38;38.13;;;18.63;;
25609;SDS011;13479;49.044;8.716;2022-12-10T19:46:09;49.70;;;22.37;;
25609;SDS011;13479;49.044;8.716;2022-12-10T19:48:40;50.50;;;22.83;;
25609;SDS011;13479;49.044;8.716;2022-12-10T19:51:06;47.60;;;22.70;;
25609;SDS011;13479;49.044;8.716;2022-12-10T19:53:32;47.47;;;21.40;;
25609;SDS011;13479;49.044;8.716;2022-12-10T19:55:57;49.97;;;22.47;;
25609;SDS011;13479;49.044;8.716;2022-12-10T19:58:22;45.73;;;20.90;;
25609;SDS011;13479;49.044;8.716;2022-12-10T20:00:47;41.77;;;20.10;;
25609;SDS011;13479;49.044;8.716;2022-12-10T20:03:13;42.93;;;20.13;;
25609;SDS011;13479;49.044;8.716;2022-12-10T20:05:38;49.67;;;21.73;;
25609;SDS011;13479;49.044;8.716;2022-12-10T20:08:04;48.80;;;22.03;;
25609;SDS011;13479;49.044;8.716;2022-12-10T20:10:30;48.13;;;22.87;;
25609;SDS011;13479;49.044;8.716;2022-12-10T20:12:56;48.07;;;21.47;;
25609;SDS011;13479;49.044;8.716;2022-12-10T20:15:22;47.27;;;21.27;;
25609;SDS011;13479;49.044;8.716;2022-12-10T20:17:49;41.80;;;18.93;;
25609;SDS011;13479;49.044;8.716;2022-12-10T20:22:52;41.70;;;19.23;;
25609;SDS011;13479;49.044;8.716;2022-12-10T20:25:19;38.50;;;18.80;;
25609;SDS011;13479;49.044;8.716;2022-12-10T20:27:46;35.13;;;16.77;;
25609;SDS011;13479;49.044;8.716;2022-12-10T20:30:14;39.10;;;17.43;;
25609;SDS011;13479;49.044;8.716;2022-12-10T20:32:43;47.43;;;21.07;;
25609;SDS011;13479;49.044;8.716;2022-12-10T20:35:08;37.17;;;17.33;;
25609;SDS011;13479;49.044;8.716;2022-12-10T20:37:34;42.40;;;18.53;;
25609;SDS011;13479;49.044;8.716;2022-12-10T20:39:59;40.50;;;18.40;;
25609;SDS011;13479;49.044;8.716;2022-12-10T20:42:24;40.93;;;18.60;;
25609;SDS011;13479;49.044;8.716;2022-12-10T20:44:50;45.90;;;20.03;;
25609;SDS011;13479;49.044;8.716;2022-12-10T20:47:15;41.67;;;18.30;;
25609;SDS011;13479;49.044;8.716;2022-12-10T20:49:40;52.07;;;22.07;;
25609;SDS011;13479;49.044;8.716;2022-12-10T20:52:05;41.23;;;19.73;;
25609;SDS011;13479;49.044;8.716;2022-12-10T20:54:31;56.43;;;25.07;;
25609;SDS011;13479;49.044;8.716;2022-12-10T20:56:56;55.90;;;22.93;;
25609;SDS011;13479;49.044;8.716;2022-12-10T20:59:22;49.67;;;21.63;;